CheckWX is a tool to help pilots better visualize weather data.  It is not intended as a substitute for an official pre-flight weather briefing.

19:58:58 UTC

HTDA METAR
Julius Nyerere International Airport
Dar es Salaam, Tanzania
Current

59 mins ago

HTDA 281900Z 03008KT 9999 SCT015 27/25 Q1012 NOSIG
Observed
Jan-28 @ 19:00 UTC
Wind
  • 030° at 8 KTS
Visibility
10,000+ meters
Flight Rules
VFR
Cloud Levels
  • Scattered at 1,500' AGL
Temperature
27°C / 81°F
Dewpoint
25°C / 77°F
Heat Index
31°C / 88°F
Humidity
89%
Altimeter
29.88" Hg
Pressure
1011.92 hPa
Previous

2 hours ago

HTDA 281800Z 03006KT 9999 FEW015 27/25 Q1012 NOSIG
Observed
Jan-28 @ 18:00 UTC
Wind
  • 030° at 6 KTS
Visibility
10,000+ meters
Flight Rules
VFR
Cloud Levels
  • Few at 1,500' AGL
Temperature
27°C / 81°F
Dewpoint
25°C / 77°F
Heat Index
31°C / 88°F
Humidity
89%
Altimeter
29.88" Hg
Pressure
1011.92 hPa
Previous

3 hours ago

HTDA 281700Z 03010KT 9999 FEW013 27/25 Q1010 NOSIG
Observed
Jan-28 @ 17:00 UTC
Wind
  • 030° at 10 KTS
Visibility
10,000+ meters
Flight Rules
VFR
Cloud Levels
  • Few at 1,300' AGL
Temperature
27°C / 81°F
Dewpoint
25°C / 77°F
Heat Index
31°C / 88°F
Humidity
89%
Altimeter
29.82" Hg
Pressure
1009.92 hPa